createdAt,value
2023-03-07T00:00:21.924Z,2.70
2023-03-07T00:02:52.299Z,2.70
2023-03-07T00:05:21.604Z,2.70
2023-03-07T00:07:49.671Z,3.30
2023-03-07T00:10:18.238Z,2.60
2023-03-07T00:12:46.207Z,2.60
2023-03-07T00:15:14.141Z,2.50
2023-03-07T00:17:42.042Z,2.40
2023-03-07T00:20:14.299Z,2.40
2023-03-07T00:22:44.297Z,2.60
2023-03-07T00:25:12.378Z,2.40
2023-03-07T00:27:40.349Z,2.50
2023-03-07T00:30:09.924Z,2.50
2023-03-07T00:32:37.869Z,2.50
2023-03-07T00:35:06.278Z,2.40
2023-03-07T00:37:34.279Z,2.60
2023-03-07T00:40:05.043Z,2.60
2023-03-07T00:42:33.054Z,2.50
2023-03-07T00:45:00.907Z,2.60
2023-03-07T00:47:28.777Z,2.50
2023-03-07T00:49:56.664Z,2.60
2023-03-07T00:52:24.516Z,2.40
2023-03-07T00:54:52.334Z,2.50
2023-03-07T00:57:21.591Z,3.30
2023-03-07T00:59:49.446Z,3.40
2023-03-07T01:02:17.278Z,2.60
2023-03-07T01:04:45.224Z,2.70
2023-03-07T01:07:13.066Z,2.70
2023-03-07T01:09:40.897Z,2.70
2023-03-07T01:12:09.564Z,2.70
2023-03-07T01:14:38.761Z,2.80
2023-03-07T01:17:06.615Z,2.60
2023-03-07T01:19:34.502Z,4.00
2023-03-07T01:22:02.839Z,2.70
2023-03-07T01:24:30.664Z,2.80
2023-03-07T01:26:58.523Z,2.70
2023-03-07T01:29:26.368Z,2.80
2023-03-07T01:31:55.915Z,2.80
2023-03-07T01:34:24.068Z,2.90
2023-03-07T01:36:51.922Z,2.80
2023-03-07T01:39:19.774Z,2.80
2023-03-07T01:41:48.578Z,2.80
2023-03-07T01:44:19.111Z,2.90
2023-03-07T01:46:50.508Z,2.80
2023-03-07T01:49:28.112Z,3.90
2023-03-07T01:52:01.996Z,2.80
2023-03-07T01:54:32.430Z,2.90
2023-03-07T01:57:02.590Z,2.90
2023-03-07T01:59:33.111Z,2.90
2023-03-07T02:02:07.634Z,2.90
2023-03-07T02:04:42.700Z,2.90
2023-03-07T02:07:12.167Z,2.80
2023-03-07T02:09:40.346Z,2.90
2023-03-07T02:12:09.116Z,2.90
2023-03-07T02:14:37.121Z,3.00
2023-03-07T02:17:05.095Z,3.00
2023-03-07T02:19:54.090Z,2.80
2023-03-07T02:22:22.009Z,3.00
2023-03-07T02:24:54.235Z,2.90
2023-03-07T02:27:25.245Z,2.80
2023-03-07T02:29:53.348Z,3.00
2023-03-07T02:32:21.350Z,3.00
2023-03-07T02:34:49.279Z,2.80
2023-03-07T02:37:22.666Z,2.90
2023-03-07T02:39:51.174Z,3.00
2023-03-07T02:42:22.537Z,3.30
2023-03-07T02:44:58.165Z,2.90
2023-03-07T02:47:26.285Z,3.00
2023-03-07T02:49:54.313Z,3.00
2023-03-07T02:52:22.856Z,2.80
2023-03-07T02:54:50.734Z,3.00
2023-03-07T02:57:19.826Z,3.00
2023-03-07T02:59:47.793Z,3.00
2023-03-07T03:02:17.225Z,2.80
2023-03-07T03:04:45.175Z,3.00
2023-03-07T03:07:13.205Z,2.80
2023-03-07T03:09:41.139Z,3.00
2023-03-07T03:12:09.356Z,2.90
2023-03-07T03:14:37.253Z,3.00
2023-03-07T03:17:05.217Z,3.00
2023-03-07T03:19:34.629Z,3.00
2023-03-07T03:22:02.483Z,2.80
2023-03-07T03:24:30.666Z,3.20
2023-03-07T03:26:58.996Z,3.10
2023-03-07T03:29:27.142Z,2.90
2023-03-07T03:31:55.010Z,3.00
2023-03-07T03:34:22.991Z,2.90
2023-03-07T03:36:52.409Z,2.90
2023-03-07T03:39:20.824Z,3.00
2023-03-07T03:41:48.764Z,2.90
2023-03-07T03:44:16.652Z,3.10
2023-03-07T03:46:44.658Z,2.80
2023-03-07T03:49:13.913Z,3.00
2023-03-07T03:51:41.747Z,3.10
2023-03-07T03:54:11.294Z,3.00
2023-03-07T03:56:39.121Z,3.00
2023-03-07T03:59:07.687Z,3.00
2023-03-07T04:01:35.694Z,2.90
2023-03-07T04:04:04.776Z,3.00
2023-03-07T04:06:34.911Z,2.90
2023-03-07T04:09:03.916Z,2.90
2023-03-07T04:11:33.736Z,3.00
2023-03-07T04:14:01.611Z,3.00
2023-03-07T04:16:29.621Z,3.10
2023-03-07T04:18:58.197Z,3.10
2023-03-07T04:21:26.764Z,3.00
2023-03-07T04:23:57.025Z,3.00
2023-03-07T04:26:24.930Z,2.90
2023-03-07T04:28:54.226Z,3.00
2023-03-07T04:31:24.049Z,2.90
2023-03-07T04:33:52.684Z,2.80
2023-03-07T04:36:20.791Z,2.80
2023-03-07T04:38:50.471Z,2.70
2023-03-07T04:41:20.241Z,2.60
2023-03-07T04:43:48.289Z,2.40
2023-03-07T04:46:19.065Z,2.50
2023-03-07T04:48:47.714Z,2.60
2023-03-07T04:51:15.914Z,2.60
2023-03-07T04:53:44.256Z,2.60
2023-03-07T04:56:13.944Z,2.60
2023-03-07T04:58:42.167Z,2.50
2023-03-07T05:01:10.648Z,2.50
2023-03-07T05:03:39.891Z,2.60
2023-03-07T05:06:09.716Z,2.50
2023-03-07T05:08:37.707Z,2.50
2023-03-07T05:11:06.043Z,2.50
2023-03-07T05:13:34.196Z,2.50
2023-03-07T05:16:02.231Z,2.50
2023-03-07T05:18:30.356Z,2.50
2023-03-07T05:20:59.565Z,2.40
2023-03-07T05:23:27.576Z,2.50
2023-03-07T05:25:55.478Z,2.90
2023-03-07T05:28:23.364Z,2.30
2023-03-07T05:30:51.218Z,2.60
2023-03-07T05:33:19.140Z,2.60
2023-03-07T05:35:48.104Z,2.50
2023-03-07T05:38:17.583Z,2.60
2023-03-07T05:40:45.443Z,2.50
2023-03-07T05:43:13.428Z,2.60
2023-03-07T05:45:41.321Z,2.60
2023-03-07T05:48:09.212Z,2.50
2023-03-07T05:50:38.902Z,2.60
2023-03-07T05:53:06.786Z,2.60
2023-03-07T05:55:36.127Z,2.60
2023-03-07T05:58:04.082Z,2.50
2023-03-07T06:00:32.038Z,2.60
2023-03-07T06:03:02.188Z,2.60
2023-03-07T06:05:30.183Z,2.60
2023-03-07T06:08:01.235Z,3.50
2023-03-07T06:10:30.253Z,2.70
2023-03-07T06:12:59.439Z,2.70
2023-03-07T06:15:27.302Z,2.70
2023-03-07T06:17:55.357Z,2.60
2023-03-07T06:20:23.252Z,2.70
2023-03-07T06:22:51.098Z,2.80
2023-03-07T06:25:21.637Z,2.70
2023-03-07T06:27:49.569Z,2.70
2023-03-07T06:30:19.101Z,2.80
2023-03-07T06:32:47.056Z,2.90
2023-03-07T06:35:14.902Z,2.80
2023-03-07T06:37:42.743Z,2.90
2023-03-07T06:40:12.230Z,2.70
2023-03-07T06:42:40.172Z,3.00
2023-03-07T06:45:09.266Z,2.90
2023-03-07T06:47:38.618Z,3.00
2023-03-07T06:50:07.522Z,3.00
2023-03-07T06:52:35.440Z,3.10
2023-03-07T06:55:03.591Z,3.00
2023-03-07T06:57:33.371Z,3.10
2023-03-07T07:00:01.414Z,3.50
2023-03-07T07:02:29.437Z,3.10
2023-03-07T07:05:01.091Z,3.00
2023-03-07T07:07:29.215Z,3.10
2023-03-07T07:09:57.107Z,3.10
2023-03-07T07:12:25.129Z,3.10
2023-03-07T07:14:52.971Z,3.30
2023-03-07T07:17:20.936Z,3.90
2023-03-07T07:19:49.162Z,3.00
2023-03-07T07:22:18.433Z,3.00
2023-03-07T07:24:46.285Z,2.90
2023-03-07T07:27:14.149Z,2.90
2023-03-07T07:29:42.247Z,2.90
2023-03-07T07:32:10.834Z,2.90
2023-03-07T07:34:38.834Z,2.80
2023-03-07T07:37:07.014Z,2.70
2023-03-07T07:39:36.287Z,2.80
2023-03-07T07:42:04.379Z,3.00
2023-03-07T07:44:32.844Z,2.90
2023-03-07T07:47:00.744Z,2.50
2023-03-07T07:49:28.843Z,2.50
2023-03-07T07:51:56.739Z,2.70
2023-03-07T07:54:24.765Z,3.80
2023-03-07T07:56:53.995Z,2.40
2023-03-07T07:59:22.063Z,2.40
2023-03-07T08:01:50.009Z,2.40
2023-03-07T08:04:17.970Z,2.40
2023-03-07T08:06:45.826Z,2.40
2023-03-07T08:09:14.523Z,2.20
2023-03-07T08:11:42.580Z,3.20
2023-03-07T08:14:11.832Z,2.20
2023-03-07T08:16:39.714Z,2.30
2023-03-07T08:19:07.702Z,2.20
2023-03-07T08:21:35.656Z,2.40
2023-03-07T08:24:04.074Z,2.10
2023-03-07T08:26:32.812Z,2.30
2023-03-07T08:29:00.667Z,2.30
2023-03-07T08:31:29.953Z,2.30
2023-03-07T08:33:57.890Z,2.30
2023-03-07T08:36:25.808Z,2.20
2023-03-07T08:38:53.881Z,2.00
2023-03-07T08:41:23.045Z,2.10
2023-03-07T08:43:51.186Z,2.20
2023-03-07T08:46:19.197Z,3.70
2023-03-07T08:48:48.518Z,2.20
2023-03-07T08:51:18.251Z,1.90
2023-03-07T08:53:47.054Z,2.20
2023-03-07T08:56:16.454Z,2.30
2023-03-07T08:58:44.892Z,2.30
2023-03-07T09:01:13.872Z,2.30
2023-03-07T09:03:41.770Z,2.00
2023-03-07T09:06:17.757Z,2.10
2023-03-07T09:08:45.910Z,3.50
2023-03-07T09:11:13.870Z,2.20
2023-03-07T09:13:51.332Z,2.00
2023-03-07T09:16:20.694Z,1.80
2023-03-07T09:18:48.594Z,2.10
2023-03-07T09:21:17.866Z,3.30
2023-03-07T09:23:45.766Z,1.90
2023-03-07T09:26:14.135Z,2.20
2023-03-07T09:28:42.073Z,1.90
2023-03-07T09:31:11.345Z,2.00
2023-03-07T09:33:39.933Z,2.80
2023-03-07T09:36:09.460Z,2.00
2023-03-07T09:38:39.240Z,2.10
2023-03-07T09:41:19.278Z,1.90
2023-03-07T09:43:54.256Z,2.20
2023-03-07T09:46:33.597Z,2.30
2023-03-07T09:49:22.020Z,2.20
2023-03-07T09:51:52.756Z,2.30
2023-03-07T09:54:25.103Z,3.40
2023-03-07T09:56:55.615Z,2.30
2023-03-07T09:59:33.666Z,2.20
2023-03-07T10:02:06.402Z,2.10
2023-03-07T10:04:43.508Z,3.40
2023-03-07T10:07:13.878Z,2.90
2023-03-07T10:09:44.014Z,2.30
2023-03-07T10:12:34.649Z,2.20
2023-03-07T10:15:11.248Z,2.50
2023-03-07T10:18:04.742Z,2.50
2023-03-07T10:20:42.432Z,2.60
2023-03-07T10:23:28.936Z,2.40
2023-03-07T10:26:03.855Z,2.50
2023-03-07T10:28:33.848Z,3.40
2023-03-07T10:31:14.206Z,3.50
2023-03-07T10:33:46.312Z,4.00
2023-03-07T10:36:18.438Z,4.00
2023-03-07T10:38:58.492Z,2.70
2023-03-07T10:41:28.065Z,2.80
2023-03-07T10:43:57.634Z,2.70
2023-03-07T10:46:28.584Z,2.90
2023-03-07T10:49:01.164Z,2.80
2023-03-07T10:51:50.665Z,2.50
2023-03-07T10:54:22.052Z,3.00
2023-03-07T10:57:07.407Z,3.00
2023-03-07T10:59:36.114Z,3.10
2023-03-07T11:02:22.570Z,3.70
2023-03-07T11:04:50.418Z,3.00
2023-03-07T11:07:29.358Z,3.10
2023-03-07T11:09:58.253Z,3.30
2023-03-07T11:12:30.632Z,3.20
2023-03-07T11:15:10.584Z,3.50
2023-03-07T11:17:43.268Z,3.20
2023-03-07T11:20:21.479Z,3.20
2023-03-07T11:22:49.870Z,3.30
2023-03-07T11:25:21.790Z,3.50
2023-03-07T11:27:53.292Z,3.50
2023-03-07T11:30:25.049Z,3.60
2023-03-07T11:33:00.109Z,3.60
2023-03-07T11:35:43.549Z,3.90
2023-03-07T11:38:20.963Z,4.50
2023-03-07T11:40:56.249Z,5.10
2023-03-07T11:43:38.212Z,5.70
2023-03-07T11:46:11.468Z,5.60
2023-03-07T11:48:52.552Z,5.50
2023-03-07T11:51:38.205Z,4.20
2023-03-07T11:54:17.649Z,5.30
2023-03-07T11:56:51.157Z,5.80
2023-03-07T11:59:54.747Z,4.40
2023-03-07T12:02:44.622Z,4.50
2023-03-07T12:05:43.217Z,4.70
2023-03-07T12:08:38.848Z,4.50
2023-03-07T12:11:19.927Z,4.50
2023-03-07T12:13:58.721Z,4.30
2023-03-07T12:16:39.053Z,4.40
2023-03-07T12:19:30.673Z,4.10
2023-03-07T12:22:17.601Z,4.40
2023-03-07T12:24:55.787Z,4.70
2023-03-07T12:27:28.602Z,4.60
2023-03-07T12:30:01.077Z,4.70
2023-03-07T12:32:33.092Z,5.10
2023-03-07T12:35:08.391Z,4.80
2023-03-07T12:37:42.405Z,5.60
2023-03-07T12:40:19.031Z,6.60
2023-03-07T12:42:53.829Z,4.50
2023-03-07T12:45:26.078Z,5.20
2023-03-07T12:48:06.992Z,4.70
2023-03-07T12:50:45.163Z,4.70
2023-03-07T12:53:22.323Z,5.00
2023-03-07T12:55:55.790Z,5.40
2023-03-07T12:58:35.750Z,4.70
2023-03-07T13:01:07.224Z,4.80
2023-03-07T13:03:44.428Z,5.30
2023-03-07T13:06:17.992Z,4.90
2023-03-07T13:08:49.018Z,4.80
2023-03-07T13:11:22.550Z,4.70
2023-03-07T13:13:56.975Z,4.60
2023-03-07T13:16:42.612Z,4.60
2023-03-07T13:19:52.737Z,4.30
2023-03-07T13:23:03.226Z,4.00
2023-03-07T13:25:51.675Z,3.40
2023-03-07T13:28:38.448Z,3.10
2023-03-07T13:31:26.803Z,2.70
2023-03-07T13:33:54.786Z,2.70
2023-03-07T13:36:35.539Z,2.50
2023-03-07T13:39:03.833Z,2.30
2023-03-07T13:41:49.522Z,2.50
2023-03-07T13:44:38.067Z,2.20
2023-03-07T13:47:26.527Z,2.10
2023-03-07T13:49:54.424Z,1.90
2023-03-07T13:52:45.393Z,1.90
2023-03-07T13:55:25.474Z,1.80
2023-03-07T13:57:58.404Z,1.70
2023-03-07T14:00:34.101Z,1.70
2023-03-07T14:03:03.136Z,1.70
2023-03-07T14:05:34.323Z,1.60
2023-03-07T14:08:03.780Z,1.50
2023-03-07T14:10:32.878Z,1.50
2023-03-07T14:13:32.934Z,1.50
2023-03-07T14:16:18.773Z,1.60
2023-03-07T14:18:56.296Z,1.50
2023-03-07T14:21:35.259Z,1.60
2023-03-07T14:24:35.041Z,1.60
2023-03-07T14:27:06.119Z,1.70
2023-03-07T14:29:34.046Z,1.80
2023-03-07T14:32:01.881Z,2.20
2023-03-07T14:34:32.008Z,1.80
2023-03-07T14:37:01.861Z,1.80
2023-03-07T14:39:44.207Z,1.90
2023-03-07T14:42:23.908Z,1.90
2023-03-07T14:45:11.789Z,1.80
2023-03-07T14:47:51.450Z,1.90
2023-03-07T14:50:23.306Z,2.10
2023-03-07T14:52:55.917Z,2.40
2023-03-07T14:55:28.840Z,2.00
2023-03-07T14:57:56.884Z,2.00
2023-03-07T15:00:28.269Z,2.00
2023-03-07T15:02:58.154Z,2.10
2023-03-07T15:05:27.948Z,2.20
2023-03-07T15:07:56.163Z,2.20
2023-03-07T15:10:29.741Z,2.20
2023-03-07T15:12:58.802Z,2.30
2023-03-07T15:15:32.036Z,2.40
2023-03-07T15:18:06.372Z,2.40
2023-03-07T15:20:35.022Z,2.40
2023-03-07T15:23:07.719Z,2.40
2023-03-07T15:25:39.108Z,2.40
2023-03-07T15:28:16.619Z,2.30
2023-03-07T15:30:51.043Z,2.30
2023-03-07T15:33:25.402Z,2.20
2023-03-07T15:36:18.697Z,2.30
2023-03-07T15:38:48.510Z,2.30
2023-03-07T15:41:35.811Z,2.20
2023-03-07T15:44:21.243Z,2.30
2023-03-07T15:46:51.764Z,2.30
2023-03-07T15:49:26.626Z,2.30
2023-03-07T15:51:56.503Z,2.30
2023-03-07T15:54:35.304Z,2.30
2023-03-07T15:57:07.268Z,2.20
2023-03-07T15:59:39.036Z,2.20
2023-03-07T16:02:36.892Z,2.20
2023-03-07T16:05:06.832Z,2.30
2023-03-07T16:07:34.753Z,2.30
2023-03-07T16:10:02.627Z,2.30
2023-03-07T16:12:32.452Z,2.20
2023-03-07T16:15:03.097Z,2.20
2023-03-07T16:17:34.902Z,2.20
2023-03-07T16:20:04.326Z,2.20
2023-03-07T16:22:32.332Z,2.20
2023-03-07T16:25:00.154Z,2.20
2023-03-07T16:27:29.000Z,2.20
2023-03-07T16:30:00.130Z,2.10
2023-03-07T16:32:28.096Z,2.10
2023-03-07T16:34:55.966Z,2.10
2023-03-07T16:37:23.814Z,2.00
2023-03-07T16:39:51.710Z,1.90
2023-03-07T16:42:22.924Z,1.90
2023-03-07T16:44:56.272Z,1.80
2023-03-07T16:47:25.536Z,1.80
2023-03-07T16:49:53.419Z,1.80
2023-03-07T16:52:23.576Z,1.80
2023-03-07T16:54:51.406Z,2.70
2023-03-07T16:57:19.314Z,1.70
2023-03-07T16:59:48.203Z,1.60
2023-03-07T17:02:18.469Z,1.70
2023-03-07T17:04:47.779Z,1.80
2023-03-07T17:07:19.702Z,1.50
2023-03-07T17:09:47.631Z,1.50
2023-03-07T17:12:16.024Z,1.50
2023-03-07T17:14:44.613Z,1.50
2023-03-07T17:17:18.884Z,1.50
2023-03-07T17:19:48.217Z,1.40
2023-03-07T17:22:16.150Z,1.20
2023-03-07T17:24:44.052Z,1.30
2023-03-07T17:27:11.995Z,1.30
2023-03-07T17:29:42.952Z,1.30
2023-03-07T17:32:11.903Z,1.30
2023-03-07T17:34:40.216Z,1.30
2023-03-07T17:37:11.007Z,1.60
2023-03-07T17:39:39.656Z,1.20
2023-03-07T17:42:08.055Z,1.20
2023-03-07T17:44:36.164Z,1.20
2023-03-07T17:47:04.543Z,1.20
2023-03-07T17:49:37.149Z,1.20
2023-03-07T17:52:06.955Z,1.20
2023-03-07T17:54:36.300Z,1.30
2023-03-07T17:57:04.657Z,1.20
2023-03-07T17:59:33.404Z,1.20
2023-03-07T18:02:01.463Z,2.10
2023-03-07T18:04:31.263Z,1.20
2023-03-07T18:06:59.447Z,1.30
2023-03-07T18:09:27.541Z,1.20
2023-03-07T18:11:57.257Z,1.30
2023-03-07T18:14:25.459Z,1.30
2023-03-07T18:16:54.104Z,1.30
2023-03-07T18:19:26.831Z,1.30
2023-03-07T18:21:55.719Z,1.30
2023-03-07T18:24:26.064Z,1.40
2023-03-07T18:26:56.215Z,1.40
2023-03-07T18:29:24.790Z,1.40
2023-03-07T18:31:53.288Z,1.60
2023-03-07T18:34:21.302Z,1.30
2023-03-07T18:36:51.579Z,1.20
2023-03-07T18:39:20.111Z,1.70
2023-03-07T18:41:49.230Z,1.10
2023-03-07T18:44:19.610Z,1.00
2023-03-07T18:46:47.786Z,1.00
2023-03-07T18:49:16.117Z,1.00
2023-03-07T18:51:45.769Z,0.90
2023-03-07T18:54:14.043Z,0.80
2023-03-07T18:56:42.660Z,0.90
2023-03-07T18:59:10.529Z,0.90
2023-03-07T19:01:39.849Z,0.90
2023-03-07T19:04:09.110Z,0.80
2023-03-07T19:06:40.464Z,0.80
2023-03-07T19:09:09.674Z,0.80
2023-03-07T19:11:37.564Z,0.80
2023-03-07T19:14:05.435Z,0.80
2023-03-07T19:16:33.401Z,0.80
2023-03-07T19:19:03.629Z,0.80
2023-03-07T19:21:31.987Z,0.80
2023-03-07T19:24:03.422Z,0.70
2023-03-07T19:26:31.407Z,0.80
2023-03-07T19:29:00.296Z,0.80
2023-03-07T19:31:31.001Z,0.80
2023-03-07T19:33:59.476Z,1.70
2023-03-07T19:36:31.656Z,1.20
2023-03-07T19:38:59.862Z,0.50
2023-03-07T19:41:29.461Z,0.60
2023-03-07T19:43:58.225Z,0.70
2023-03-07T19:46:26.653Z,0.50
2023-03-07T19:48:54.799Z,0.60
2023-03-07T19:51:24.070Z,-0.70
2023-03-07T19:53:57.017Z,0.70
2023-03-07T19:56:27.201Z,0.60
2023-03-07T19:58:55.745Z,0.70
2023-03-07T20:01:24.624Z,0.70
2023-03-07T20:03:53.018Z,0.50
2023-03-07T20:06:23.469Z,0.60
2023-03-07T20:08:53.831Z,0.60
2023-03-07T20:11:26.425Z,1.40
2023-03-07T20:13:56.105Z,0.50
2023-03-07T20:16:27.036Z,0.40
2023-03-07T20:18:55.752Z,0.50
2023-03-07T20:21:27.844Z,1.00
2023-03-07T20:23:59.418Z,0.50
2023-03-07T20:26:29.227Z,0.50
2023-03-07T20:28:57.805Z,0.60
2023-03-07T20:31:26.072Z,0.70
2023-03-07T20:33:54.040Z,0.60
2023-03-07T20:36:24.308Z,1.80
2023-03-07T20:38:54.292Z,0.60
2023-03-07T20:41:25.356Z,0.50
2023-03-07T20:43:54.174Z,0.50
2023-03-07T20:46:23.357Z,0.50
2023-03-07T20:48:55.364Z,0.50
2023-03-07T20:51:24.770Z,0.40
2023-03-07T20:53:54.495Z,1.00
2023-03-07T20:56:24.735Z,0.00
2023-03-07T20:58:54.355Z,2.20
2023-03-07T21:01:23.532Z,0.30
2023-03-07T21:03:52.462Z,0.40
2023-03-07T21:06:20.841Z,0.40
2023-03-07T21:08:48.826Z,0.30
2023-03-07T21:11:18.845Z,0.30
2023-03-07T21:13:50.292Z,0.30
2023-03-07T21:16:20.091Z,0.20
2023-03-07T21:18:48.266Z,0.20
2023-03-07T21:21:17.761Z,0.20
2023-03-07T21:23:46.421Z,0.10
2023-03-07T21:26:16.189Z,0.10
2023-03-07T21:28:44.215Z,0.20
2023-03-07T21:31:18.681Z,1.30
2023-03-07T21:33:48.598Z,0.00
2023-03-07T21:36:16.789Z,0.10
2023-03-07T21:38:45.997Z,0.10
2023-03-07T21:41:14.592Z,0.00
2023-03-07T21:43:42.650Z,0.10
2023-03-07T21:46:13.368Z,0.00
2023-03-07T21:48:43.089Z,0.00
2023-03-07T21:51:11.086Z,0.00
2023-03-07T21:53:39.169Z,0.10
2023-03-07T21:56:09.292Z,0.10
2023-03-07T21:58:38.368Z,0.20
2023-03-07T22:01:12.425Z,0.00
2023-03-07T22:03:42.378Z,0.10
2023-03-07T22:06:11.892Z,0.00
2023-03-07T22:08:40.116Z,1.20
2023-03-07T22:11:09.853Z,-0.40
2023-03-07T22:13:39.458Z,0.40
2023-03-07T22:16:10.716Z,-0.10
2023-03-07T22:18:38.613Z,-0.20
2023-03-07T22:21:09.548Z,-0.20
2023-03-07T22:23:38.119Z,-0.20
2023-03-07T22:26:07.359Z,-0.20
2023-03-07T22:28:35.847Z,-0.20
2023-03-07T22:31:05.365Z,-0.20
2023-03-07T22:33:33.593Z,-0.30
2023-03-07T22:36:04.069Z,-0.30
2023-03-07T22:38:33.793Z,0.20
2023-03-07T22:41:02.383Z,-0.40
2023-03-07T22:43:32.055Z,-0.40
2023-03-07T22:46:00.131Z,-0.40
2023-03-07T22:48:28.176Z,-0.30
2023-03-07T22:50:56.314Z,-0.30
2023-03-07T22:53:26.975Z,-0.30
2023-03-07T22:55:56.527Z,-0.20
2023-03-07T22:58:24.380Z,-0.20
2023-03-07T23:00:52.708Z,-0.10
2023-03-07T23:03:20.650Z,0.10
2023-03-07T23:05:48.634Z,0.00
2023-03-07T23:08:16.523Z,0.00
2023-03-07T23:10:44.374Z,0.40
2023-03-07T23:13:14.665Z,0.10
2023-03-07T23:15:44.038Z,0.10
2023-03-07T23:18:11.908Z,0.00
2023-03-07T23:20:39.827Z,0.10
2023-03-07T23:23:08.883Z,0.10
2023-03-07T23:25:41.819Z,0.10
2023-03-07T23:28:09.756Z,0.00
2023-03-07T23:30:39.928Z,0.00
2023-03-07T23:33:08.478Z,0.00
2023-03-07T23:35:36.936Z,0.00
2023-03-07T23:38:05.604Z,0.00
2023-03-07T23:40:35.530Z,0.00
2023-03-07T23:43:05.116Z,-0.10
2023-03-07T23:45:33.018Z,-0.10
2023-03-07T23:48:02.212Z,-0.10
2023-03-07T23:50:30.198Z,-0.20
2023-03-07T23:52:58.078Z,-0.20
2023-03-07T23:55:25.958Z,-0.30
2023-03-07T23:57:53.809Z,-0.30
